Time,TemperatureF,DewpointF,PressureIn,WindDirection,WindDirectionDegrees,WindSpeedMPH,WindSpeedGustMPH,Humidity,HourlyPrecipIn,Conditions,Clouds,dailyrainin,SoftwareType,DateUTC
2013-04-09 00:01:00,19.9,6.0,26.37,NE,48,0.0,0.0,54,0.00,,,-99.99,Weather View 32 v70,2013-04-09 05:01:00,
2013-04-09 00:21:00,19.6,5.6,26.37,NE,50,0.0,0.0,54,0.00,,,-99.99,Weather View 32 v70,2013-04-09 05:21:00,
2013-04-09 00:51:00,19.2,5.3,26.37,ENE,72,0.0,0.0,54,0.00,,,-99.99,Weather View 32 v70,2013-04-09 05:51:00,
2013-04-09 00:56:00,19.2,5.7,26.37,NE,53,0.0,0.0,55,0.00,,,-99.99,Weather View 32 v70,2013-04-09 05:56:00,
2013-04-09 01:23:00,18.7,5.2,26.37,ENE,61,0.0,0.0,55,0.00,,,-99.99,Weather View 32 v70,2013-04-09 06:23:00,
2013-04-09 01:31:00,18.5,4.6,26.37,North,0,0.0,0.0,54,0.00,,,-99.99,Weather View 32 v70,2013-04-09 06:31:00,
2013-04-09 01:56:00,18.1,4.7,26.37,North,1,0.0,0.0,55,0.00,,,-99.99,Weather View 32 v70,2013-04-09 06:56:00,
2013-04-09 02:21:00,17.6,4.2,26.37,NNE,16,0.0,0.0,55,0.00,,,-99.99,Weather View 32 v70,2013-04-09 07:21:00,
2013-04-09 02:36:00,17.6,4.2,26.37,West,268,0.0,0.0,55,0.00,,,-99.99,Weather View 32 v70,2013-04-09 07:36:00,
2013-04-09 03:01:00,17.4,3.2,26.37,NNE,21,0.0,0.0,53,0.00,,,-99.99,Weather View 32 v70,2013-04-09 08:01:00,
2013-04-09 03:16:00,17.1,2.9,26.37,NNE,22,0.0,0.0,53,0.00,,,-99.99,Weather View 32 v70,2013-04-09 08:16:00,
2013-04-09 03:24:00,17.1,2.9,26.37,North,357,0.0,0.0,53,0.00,,,-99.99,Weather View 32 v70,2013-04-09 08:24:00,
2013-04-09 03:51:00,16.7,3.3,26.37,NNE,31,0.0,0.0,55,0.00,,,-99.99,Weather View 32 v70,2013-04-09 08:51:00,
2013-04-09 04:01:00,16.5,3.2,26.37,NE,36,0.0,0.0,55,0.00,,,-99.99,Weather View 32 v70,2013-04-09 09:01:00,
2013-04-09 04:11:00,16.3,3.0,26.37,NE,37,0.0,0.0,55,0.00,,,-99.99,Weather View 32 v70,2013-04-09 09:11:00,
2013-04-09 04:21:00,16.2,3.2,26.37,NE,41,0.0,0.0,56,0.00,,,-99.99,Weather View 32 v70,2013-04-09 09:21:00,
2013-04-09 04:31:00,16.0,3.1,26.37,North,353,0.0,0.0,56,0.00,,,-99.99,Weather View 32 v70,2013-04-09 09:31:00,
2013-04-09 04:46:00,15.8,2.9,26.37,ENE,67,0.0,0.0,56,0.00,,,-99.99,Weather View 32 v70,2013-04-09 09:46:00,
2013-04-09 04:51:00,15.6,2.7,26.37,ENE,70,0.0,0.0,56,0.00,,,-99.99,Weather View 32 v70,2013-04-09 09:51:00,
2013-04-09 04:56:00,15.4,2.5,26.37,NNE,29,0.0,0.0,56,0.00,,,-99.99,Weather View 32 v70,2013-04-09 09:56:00,
2013-04-09 05:06:00,15.3,2.4,26.37,North,9,0.0,0.0,56,0.00,,,-99.99,Weather View 32 v70,2013-04-09 10:06:00,
2013-04-09 05:21:00,15.1,2.6,26.37,North,7,0.0,0.0,57,0.00,,,-99.99,Weather View 32 v70,2013-04-09 10:21:00,
2013-04-09 06:06:00,14.5,0.9,26.37,NE,45,0.0,0.0,54,0.00,,,-99.99,Weather View 32 v70,2013-04-09 11:06:00,
2013-04-09 06:11:00,14.5,0.9,26.37,ENE,70,0.0,0.0,54,0.00,,,-99.99,Weather View 32 v70,2013-04-09 11:11:00,
2013-04-09 06:21:00,14.7,1.1,26.37,NNE,15,0.0,0.0,54,0.00,,,-99.99,Weather View 32 v70,2013-04-09 11:21:00,
2013-04-09 06:36:00,14.5,0.9,26.37,NNE,31,0.0,0.0,54,0.00,,,-99.99,Weather View 32 v70,2013-04-09 11:36:00,
2013-04-09 06:56:00,14.5,0.9,26.37,ENE,77,0.0,0.0,54,0.00,,,-99.99,Weather View 32 v70,2013-04-09 11:56:00,
2013-04-09 07:06:00,14.5,0.9,26.37,NNE,24,0.0,0.0,54,0.00,,,-99.99,Weather View 32 v70,2013-04-09 12:06:00,
2013-04-09 07:21:00,14.9,1.3,26.37,NNE,18,0.0,0.0,54,0.00,,,-99.99,Weather View 32 v70,2013-04-09 12:21:00,
2013-04-09 07:26:00,14.9,0.5,26.37,NNE,31,0.0,0.0,52,0.00,,,-99.99,Weather View 32 v70,2013-04-09 12:26:00,
2013-04-09 07:36:00,14.9,1.3,26.37,NE,41,0.0,0.0,54,0.00,,,-99.99,Weather View 32 v70,2013-04-09 12:36:00,
2013-04-09 07:51:00,15.1,1.8,26.37,ENE,73,0.0,0.0,55,0.00,,,-99.99,Weather View 32 v70,2013-04-09 12:51:00,
2013-04-09 08:06:00,15.3,2.0,26.37,NNE,29,0.0,0.0,55,0.00,,,-99.99,Weather View 32 v70,2013-04-09 13:06:00,
2013-04-09 08:21:00,15.4,2.2,26.37,NNE,19,0.0,0.0,55,0.00,,,-99.99,Weather View 32 v70,2013-04-09 13:21:00,
2013-04-09 08:27:00,15.6,2.3,26.37,NE,50,0.0,0.0,55,0.00,,,-99.99,Weather View 32 v70,2013-04-09 13:27:00,
2013-04-09 08:36:00,15.3,2.4,26.37,ENE,63,0.0,0.0,56,0.00,,,-99.99,Weather View 32 v70,2013-04-09 13:36:00,
2013-04-09 08:46:00,15.4,2.2,26.37,North,350,0.0,0.0,55,0.00,,,-99.99,Weather View 32 v70,2013-04-09 13:46:00,
2013-04-09 08:51:00,15.4,2.2,26.37,North,357,0.0,0.0,55,0.00,,,-99.99,Weather View 32 v70,2013-04-09 13:51:00,
2013-04-09 09:01:00,15.4,2.2,26.37,NE,45,0.0,0.0,55,0.00,,,-99.99,Weather View 32 v70,2013-04-09 14:01:00,
2013-04-09 09:21:00,15.4,2.2,26.37,NW,326,0.0,0.0,55,0.00,,,-99.99,Weather View 32 v70,2013-04-09 14:21:00,
2013-04-09 09:27:00,15.6,2.3,26.37,NNW,331,0.0,0.0,55,0.00,,,-99.99,Weather View 32 v70,2013-04-09 14:27:00,
2013-04-09 09:41:00,15.8,2.9,26.37,NE,55,0.0,0.0,56,0.00,,,-99.99,Weather View 32 v70,2013-04-09 14:41:00,
2013-04-09 09:51:00,15.8,2.9,26.37,ENE,73,0.0,0.0,56,0.00,,,-99.99,Weather View 32 v70,2013-04-09 14:51:00,
2013-04-09 10:01:00,16.5,3.2,26.37,North,357,0.0,0.0,55,0.00,,,-99.99,Weather View 32 v70,2013-04-09 15:01:00,
2013-04-09 10:06:00,16.7,3.3,26.37,NNE,16,0.0,0.0,55,0.00,,,-99.99,Weather View 32 v70,2013-04-09 15:06:00,
2013-04-09 10:26:00,17.1,4.1,26.37,North,2,0.0,0.0,56,0.00,,,-99.99,Weather View 32 v70,2013-04-09 15:26:00,
2013-04-09 10:36:00,17.6,4.6,26.37,NE,35,0.0,0.0,56,0.00,,,-99.99,Weather View 32 v70,2013-04-09 15:36:00,
2013-04-09 10:46:00,17.8,4.7,26.37,NE,55,0.0,0.0,56,0.00,,,-99.99,Weather View 32 v70,2013-04-09 15:46:00,
2013-04-09 10:56:00,18.5,5.8,26.37,NNE,27,0.0,0.0,57,0.00,,,-99.99,Weather View 32 v70,2013-04-09 15:56:00,
2013-04-09 11:16:00,18.9,5.8,26.37,ESE,106,0.0,0.0,56,0.00,,,-99.99,Weather View 32 v70,2013-04-09 16:16:00,
2013-04-09 11:26:00,19.2,5.7,26.37,North,8,0.0,0.0,55,0.00,,,-99.99,Weather View 32 v70,2013-04-09 16:26:00,
2013-04-09 11:41:00,19.4,6.3,26.37,NE,45,0.0,0.0,56,0.00,,,-99.99,Weather View 32 v70,2013-04-09 16:41:00,
2013-04-09 11:46:00,19.8,6.6,26.37,North,0,0.0,0.0,56,0.00,,,-99.99,Weather View 32 v70,2013-04-09 16:46:00,
2013-04-09 11:56:00,20.5,7.3,26.37,NNE,33,0.0,0.0,56,0.00,,,-99.99,Weather View 32 v70,2013-04-09 16:56:00,
2013-04-09 12:06:00,21.0,7.4,26.37,North,353,0.0,0.0,55,0.00,,,-99.99,Weather View 32 v70,2013-04-09 17:06:00,
2013-04-09 12:11:00,21.0,7.4,26.37,NNE,14,0.0,0.0,55,0.00,,,-99.99,Weather View 32 v70,2013-04-09 17:11:00,
2013-04-09 12:16:00,21.2,7.9,26.37,NE,53,0.0,0.0,56,0.00,,,-99.99,Weather View 32 v70,2013-04-09 17:16:00,
2013-04-09 12:21:00,21.2,7.1,26.37,NE,43,0.0,0.0,54,0.00,,,-99.99,Weather View 32 v70,2013-04-09 17:21:00,
2013-04-09 12:26:00,21.0,7.4,26.37,ENE,70,0.0,0.0,55,0.00,,,-99.99,Weather View 32 v70,2013-04-09 17:26:00,
2013-04-09 12:36:00,21.4,8.1,26.37,NE,36,0.0,0.0,56,0.00,,,-99.99,Weather View 32 v70,2013-04-09 17:36:00,
2013-04-09 12:46:00,21.6,7.9,26.37,North,0,0.0,0.0,55,0.00,,,-99.99,Weather View 32 v70,2013-04-09 17:46:00,
2013-04-09 12:56:00,21.7,8.5,26.37,NE,54,0.0,0.0,56,0.00,,,-99.99,Weather View 32 v70,2013-04-09 17:56:00,
2013-04-09 13:16:00,22.5,9.5,26.37,North,7,0.0,0.0,57,0.00,,,-99.99,Weather View 32 v70,2013-04-09 18:16:00,
2013-04-09 13:21:00,22.6,9.7,26.37,NE,47,0.0,4.0,57,0.00,,,-99.99,Weather View 32 v70,2013-04-09 18:21:00,
2013-04-09 13:33:00,23.4,10.4,26.37,NNE,20,0.0,4.0,57,0.00,,,-99.99,Weather View 32 v70,2013-04-09 18:33:00,
2013-04-09 13:41:00,23.4,10.4,26.37,NNW,342,0.0,4.0,57,0.00,,,-99.99,Weather View 32 v70,2013-04-09 18:41:00,
2013-04-09 13:46:00,23.5,10.9,26.37,NNW,329,0.0,4.0,58,0.00,,,-99.99,Weather View 32 v70,2013-04-09 18:46:00,
2013-04-09 13:56:00,24.6,11.9,26.37,NE,37,5.0,9.0,58,0.00,,,-99.99,Weather View 32 v70,2013-04-09 18:56:00,
2013-04-09 14:01:00,24.8,11.7,26.37,ENE,65,3.0,12.0,57,0.00,,,-99.99,Weather View 32 v70,2013-04-09 19:01:00,
2013-04-09 14:11:00,25.3,11.8,26.37,ESE,108,4.0,12.0,56,0.00,,,-99.99,Weather View 32 v70,2013-04-09 19:11:00,
2013-04-09 14:21:00,25.5,11.6,26.37,NE,46,5.0,12.0,55,0.00,,,-99.99,Weather View 32 v70,2013-04-09 19:21:00,
2013-04-09 14:31:00,26.1,12.1,26.37,North,357,8.0,12.0,55,0.00,,,-99.99,Weather View 32 v70,2013-04-09 19:31:00,
2013-04-09 14:51:00,27.0,12.5,26.37,East,95,3.0,12.0,54,0.00,,,-99.99,Weather View 32 v70,2013-04-09 19:51:00,
2013-04-09 15:11:00,27.1,11.4,26.37,ENE,78,6.0,13.0,51,0.00,,,-99.99,Weather View 32 v70,2013-04-09 20:11:00,
2013-04-09 15:34:00,27.7,11.9,26.37,North,353,10.0,13.0,51,0.00,,,-99.99,Weather View 32 v70,2013-04-09 20:34:00,
2013-04-09 15:41:00,28.2,12.4,26.37,NNE,31,5.0,13.0,51,0.00,,,-99.99,Weather View 32 v70,2013-04-09 20:41:00,
2013-04-09 16:11:00,28.2,12.4,26.37,ENE,59,6.0,17.0,51,0.00,,,-99.99,Weather View 32 v70,2013-04-09 21:11:00,
2013-04-09 16:21:00,27.9,12.1,26.37,NNW,331,5.0,17.0,51,0.00,,,-99.99,Weather View 32 v70,2013-04-09 21:21:00,
2013-04-09 16:26:00,27.7,12.3,26.37,NNE,30,8.0,17.0,52,0.00,,,-99.99,Weather View 32 v70,2013-04-09 21:26:00,
2013-04-09 16:34:00,27.7,12.3,26.37,North,0,4.0,17.0,52,0.00,,,-99.99,Weather View 32 v70,2013-04-09 21:34:00,
2013-04-09 16:56:00,29.3,12.5,26.37,North,10,9.0,13.0,49,0.00,,,-99.99,Weather View 32 v70,2013-04-09 21:56:00,
2013-04-09 17:01:00,29.5,12.7,26.37,NE,36,6.0,13.0,49,0.00,,,-99.99,Weather View 32 v70,2013-04-09 22:01:00,
2013-04-09 17:06:00,29.7,12.4,26.37,North,5,15.0,15.0,48,0.00,,,-99.99,Weather View 32 v70,2013-04-09 22:06:00,
2013-04-09 17:16:00,29.3,12.0,26.37,NNW,342,8.0,15.0,48,0.00,,,-99.99,Weather View 32 v70,2013-04-09 22:16:00,
2013-04-09 17:26:00,28.9,11.2,26.37,NNW,346,5.0,15.0,47,0.00,,,-99.99,Weather View 32 v70,2013-04-09 22:26:00,
2013-04-09 17:35:00,28.9,11.2,26.37,North,6,4.0,15.0,47,0.00,,,-99.99,Weather View 32 v70,2013-04-09 22:35:00,
2013-04-09 17:51:00,28.0,11.8,26.37,NNE,21,4.0,15.0,50,0.00,,,-99.99,Weather View 32 v70,2013-04-09 22:51:00,
2013-04-09 18:01:00,27.9,12.1,26.37,NNE,15,3.0,15.0,51,0.00,,,-99.99,Weather View 32 v70,2013-04-09 23:01:00,
2013-04-09 18:11:00,27.7,12.3,26.37,NNW,329,8.0,15.0,52,0.00,,,-99.99,Weather View 32 v70,2013-04-09 23:11:00,
2013-04-09 18:16:00,27.5,11.7,26.37,NE,48,4.0,15.0,51,0.00,,,-99.99,Weather View 32 v70,2013-04-09 23:16:00,
2013-04-09 18:26:00,27.1,11.0,26.37,NNE,27,11.0,15.0,50,0.00,,,-99.99,Weather View 32 v70,2013-04-09 23:26:00,
2013-04-09 18:36:00,27.3,11.6,26.37,NE,45,5.0,15.0,51,0.00,,,-99.99,Weather View 32 v70,2013-04-09 23:36:00,
2013-04-09 18:46:00,27.0,10.3,26.37,NNW,341,5.0,13.0,49,0.00,,,-99.99,Weather View 32 v70,2013-04-09 23:46:00,
2013-04-09 18:51:00,27.0,10.3,26.37,North,5,6.0,13.0,49,0.00,,,-99.99,Weather View 32 v70,2013-04-09 23:51:00,
2013-04-09 19:01:00,26.8,11.5,26.37,ENE,62,6.0,13.0,52,0.00,,,-99.99,Weather View 32 v70,2013-04-10 00:01:00,
2013-04-09 19:11:00,26.8,11.5,26.37,ENE,59,6.0,13.0,52,0.00,,,-99.99,Weather View 32 v70,2013-04-10 00:11:00,
2013-04-09 19:21:00,26.6,11.3,26.37,North,2,5.0,13.0,52,0.00,,,-99.99,Weather View 32 v70,2013-04-10 00:21:00,
2013-04-09 19:56:00,25.9,11.1,26.37,NNW,345,4.0,12.0,53,0.00,,,-99.99,Weather View 32 v70,2013-04-10 00:56:00,
2013-04-09 20:16:00,25.5,10.8,26.37,North,357,8.0,12.0,53,0.00,,,-99.99,Weather View 32 v70,2013-04-10 01:16:00,
2013-04-09 20:26:00,25.3,10.6,26.37,NNW,345,8.0,11.0,53,0.00,,,-99.99,Weather View 32 v70,2013-04-10 01:26:00,
2013-04-09 20:37:00,25.3,11.4,26.37,North,10,6.0,11.0,55,0.00,,,-99.99,Weather View 32 v70,2013-04-10 01:37:00,
2013-04-09 20:46:00,25.3,11.8,26.37,North,353,10.0,11.0,56,0.00,,,-99.99,Weather View 32 v70,2013-04-10 01:46:00,
2013-04-09 20:56:00,25.3,11.8,26.37,NE,45,5.0,11.0,56,0.00,,,-99.99,Weather View 32 v70,2013-04-10 01:56:00,
2013-04-09 21:01:00,25.2,12.1,26.37,North,0,5.0,11.0,57,0.00,,,-99.99,Weather View 32 v70,2013-04-10 02:01:00,
2013-04-09 21:11:00,25.2,12.5,26.37,NNE,12,6.0,10.0,58,0.00,,,-99.99,Weather View 32 v70,2013-04-10 02:11:00,
2013-04-09 21:21:00,25.2,12.5,26.37,NNE,32,3.0,10.0,58,0.00,,,-99.99,Weather View 32 v70,2013-04-10 02:21:00,
2013-04-09 21:36:00,25.3,12.6,26.37,North,4,6.0,10.0,58,0.00,,,-99.99,Weather View 32 v70,2013-04-10 02:36:00,
2013-04-09 21:46:00,25.5,12.0,26.37,NNE,13,4.0,10.0,56,0.00,,,-99.99,Weather View 32 v70,2013-04-10 02:46:00,
2013-04-09 21:51:00,25.5,12.0,26.37,North,0,4.0,10.0,56,0.00,,,-99.99,Weather View 32 v70,2013-04-10 02:51:00,
2013-04-09 21:56:00,25.5,12.0,26.37,NNW,334,3.0,10.0,56,0.00,,,-99.99,Weather View 32 v70,2013-04-10 02:56:00,
2013-04-09 22:11:00,25.3,11.8,26.37,NNE,21,6.0,10.0,56,0.00,,,-99.99,Weather View 32 v70,2013-04-10 03:11:00,
2013-04-09 22:26:00,25.3,11.8,26.37,NNE,28,6.0,8.0,56,0.00,,,-99.99,Weather View 32 v70,2013-04-10 03:26:00,
2013-04-09 22:38:00,25.3,12.2,26.37,North,349,3.0,8.0,57,0.00,,,-99.99,Weather View 32 v70,2013-04-10 03:38:00,
2013-04-09 22:46:00,25.3,12.2,26.37,NNW,342,3.0,8.0,57,0.00,,,-99.99,Weather View 32 v70,2013-04-10 03:46:00,
2013-04-09 22:51:00,25.2,12.5,26.37,NNW,343,2.0,8.0,58,0.00,,,-99.99,Weather View 32 v70,2013-04-10 03:51:00,
2013-04-09 23:01:00,25.2,12.8,26.37,North,357,6.0,8.0,59,0.00,,,-99.99,Weather View 32 v70,2013-04-10 04:01:00,
2013-04-09 23:06:00,25.2,12.8,26.37,NNE,13,4.0,10.0,59,0.00,,,-99.99,Weather View 32 v70,2013-04-10 04:06:00,
2013-04-09 23:16:00,25.2,13.2,26.37,NNE,23,3.0,10.0,60,0.00,,,-99.99,Weather View 32 v70,2013-04-10 04:16:00,
2013-04-09 23:31:00,25.2,13.2,26.37,NE,41,4.0,10.0,60,0.00,,,-99.99,Weather View 32 v70,2013-04-10 04:31:00,
2013-04-09 23:39:00,25.2,13.6,26.37,NE,53,5.0,10.0,61,0.00,,,-99.99,Weather View 32 v70,2013-04-10 04:39:00,
2013-04-09 23:46:00,25.2,14.0,26.37,NNE,26,3.0,10.0,62,0.00,,,-99.99,Weather View 32 v70,2013-04-10 04:46:00,
2013-04-09 23:56:00,25.0,13.4,26.37,NE,47,4.0,10.0,61,0.00,,,-99.99,Weather View 32 v70,2013-04-10 04:56:00,